Time;durP1;ratioP1;P1;durP2;ratioP2;P2;SDS_P1;SDS_P2;PMS_P1;PMS_P2;Temp;Humidity;BMP_temperature;BMP_pressure;BME280_temperature;BME280_humidity;BME280_pressure;Samples;Min_cycle;Max_cycle;Signal;HPM_P1;HPM_P2
2021/05/07 00:02:19;;;;;;;;;;;8.20;99.90;;;;;;5033444;28;19909;-77
2021/05/07 00:04:45;;;;;;;;;;;8.20;99.90;;;;;;5015236;28;19948;-77
2021/05/07 00:07:10;;;;;;;;;;;8.20;99.90;;;;;;5033383;28;20509;-77
2021/05/07 00:09:36;;;;;;;;;;;8.20;99.90;;;;;;5033205;28;19916;-77
2021/05/07 00:12:04;;;;;;;;;;;8.10;99.90;;;;;;5015569;28;19935;-77
2021/05/07 00:14:29;;;;;;;;;;;8.10;99.90;;;;;;5032933;28;19963;-77
2021/05/07 00:16:56;;;;;;;;;;;8.20;99.90;;;;;;5015295;28;19963;-77
2021/05/07 00:19:21;;;;;;;;;;;8.20;99.90;;;;;;5032999;28;20016;-77
2021/05/07 00:21:47;;;;;;;;;;;8.10;99.90;;;;;;5033132;28;20383;-77
2021/05/07 00:24:12;;;;;;;;;;;8.10;99.90;;;;;;5015127;28;20018;-77
2021/05/07 00:26:38;;;;;;;2.78;1.70;;;8.10;99.90;;;;;;5014970;28;19994;-77
2021/05/07 00:29:03;;;;;;;;;;;8.00;99.90;;;;;;5032801;28;20040;-77
2021/05/07 00:31:29;;;;;;;;;;;8.00;99.90;;;;;;5032713;28;20280;-77
2021/05/07 00:33:54;;;;;;;;;;;8.00;99.90;;;;;;5032777;28;19917;-77
2021/05/07 00:36:20;;;;;;;;;;;8.10;99.90;;;;;;5032432;28;20403;-77
2021/05/07 00:38:45;;;;;;;;;;;8.00;99.90;;;;;;5015027;28;19910;-77
2021/05/07 00:41:11;;;;;;;;;;;8.00;99.90;;;;;;5032821;28;19996;-77
2021/05/07 00:43:40;;;;;;;;;;;8.00;99.90;;;;;;5014991;28;20406;-77
2021/05/07 00:46:05;;;;;;;;;;;7.90;99.90;;;;;;5014717;28;19905;-77
2021/05/07 00:48:31;;;;;;;;;;;7.90;99.90;;;;;;5014975;28;19909;-77
2021/05/07 00:50:56;;;;;;;;;;;7.90;99.90;;;;;;5015168;28;19905;-77
2021/05/07 00:53:22;;;;;;;;;;;7.90;99.90;;;;;;5032574;28;20363;-77
2021/05/07 00:55:47;;;;;;;;;;;7.90;99.90;;;;;;5014610;28;19928;-77
2021/05/07 00:58:14;;;;;;;2.17;1.90;;;7.90;99.90;;;;;;5014401;28;20008;-77
2021/05/07 01:00:39;;;;;;;;;;;8.00;99.90;;;;;;5014659;28;20388;-77
2021/05/07 01:03:05;;;;;;;;;;;7.90;99.90;;;;;;5032377;28;19951;-77
2021/05/07 01:05:30;;;;;;;;;;;7.90;99.90;;;;;;5014225;28;19956;-77
2021/05/07 01:07:56;;;;;;;;;;;8.00;99.90;;;;;;5032418;28;20299;-77
2021/05/07 01:10:22;;;;;;;;;;;8.00;99.90;;;;;;5031799;28;19967;-77
2021/05/07 01:12:48;;;;;;;;;;;8.00;99.90;;;;;;5032114;28;19951;-77
2021/05/07 01:15:15;;;;;;;;;;;8.10;99.90;;;;;;5032152;28;19958;-77
2021/05/07 01:17:43;;;;;;;;;;;8.00;99.90;;;;;;5014677;28;19955;-77
2021/05/07 01:20:18;;;;;;;;;;;8.00;99.90;;;;;;5032376;28;19905;-77
2021/05/07 01:22:45;;;;;;;;;;;8.00;99.90;;;;;;5014312;28;19992;-77
2021/05/07 01:25:11;;;;;;;;;;;7.90;99.90;;;;;;5031586;28;19905;-77
2021/05/07 01:27:38;;;;;;;;;;;7.90;99.90;;;;;;5014510;28;19911;-77
2021/05/07 01:30:10;;;;;;;;;;;7.80;99.90;;;;;;5014408;28;19916;-77
2021/05/07 01:32:37;;;;;;;;;;;7.70;99.90;;;;;;5014310;28;19913;-77
2021/05/07 01:35:04;;;;;;;;;;;7.80;99.90;;;;;;5032118;28;19911;-77
2021/05/07 01:37:29;;;;;;;;;;;7.90;99.90;;;;;;5032356;28;19909;-77
2021/05/07 01:39:55;;;;;;;;;;;7.90;99.90;;;;;;5032417;28;19928;-77
2021/05/07 01:42:20;;;;;;;;;;;7.90;99.90;;;;;;5032296;28;19944;-77
2021/05/07 01:44:46;;;;;;;;;;;7.90;99.90;;;;;;5014422;28;19914;-77
2021/05/07 01:47:11;;;;;;;2.22;1.65;;;8.00;99.90;;;;;;5033424;28;20007;-77
2021/05/07 01:49:37;;;;;;;1.58;1.48;;;8.00;99.90;;;;;;5021664;28;20025;-77
2021/05/07 01:52:03;;;;;;;2.30;1.70;;;7.90;99.90;;;;;;5049029;28;20026;-77
2021/05/07 01:54:28;;;;;;;;;;;7.90;99.90;;;;;;5034473;28;19966;-77
2021/05/07 01:56:53;;;;;;;;;;;7.90;99.90;;;;;;5052590;28;19909;-77
2021/05/07 01:59:19;;;;;;;2.10;1.40;;;7.80;99.90;;;;;;5036191;28;20031;-77
2021/05/07 02:01:44;;;;;;;;;;;7.70;99.90;;;;;;5035790;28;20360;-77
2021/05/07 02:04:10;;;;;;;;;;;7.70;99.90;;;;;;5035518;28;19905;-77
2021/05/07 02:06:35;;;;;;;;;;;7.60;99.90;;;;;;5017789;28;19988;-77
2021/05/07 02:09:01;;;;;;;;;;;7.60;99.90;;;;;;5035627;28;19913;-77
2021/05/07 02:11:26;;;;;;;;;;;7.50;99.90;;;;;;5017843;28;20024;-77
2021/05/07 02:13:52;;;;;;;;;;;7.60;99.90;;;;;;5035563;28;19959;-77
2021/05/07 02:16:17;;;;;;;;;;;7.60;99.90;;;;;;5035099;28;20295;-77
2021/05/07 02:18:43;;;;;;;;;;;7.70;99.90;;;;;;5035564;28;20008;-77
2021/05/07 02:21:10;;;;;;;;;;;7.70;99.90;;;;;;5017718;28;19912;-77
2021/05/07 02:23:36;;;;;;;;;;;7.60;99.90;;;;;;5017593;28;19905;-77
2021/05/07 02:26:01;;;;;;;;;;;7.60;99.90;;;;;;5017412;28;19948;-77
2021/05/07 02:28:27;;;;;;;;;;;7.60;99.90;;;;;;5035486;28;19959;-77
2021/05/07 02:30:52;;;;;;;;;;;7.60;99.90;;;;;;5017466;28;19912;-77
2021/05/07 02:33:18;;;;;;;;;;;7.60;99.90;;;;;;5035072;28;20402;-77
2021/05/07 02:35:43;;;;;;;;;;;7.70;99.90;;;;;;5017155;28;20424;-77
2021/05/07 02:38:08;;;;;;;;;;;7.80;99.90;;;;;;5017176;28;19935;-77
2021/05/07 02:40:34;;;;;;;;;;;7.80;99.90;;;;;;5035064;28;19909;-77
2021/05/07 02:42:59;;;;;;;;;;;7.70;99.90;;;;;;5017201;28;19912;-77
2021/05/07 02:45:25;;;;;;;;;;;7.70;99.90;;;;;;5016814;28;19956;-77
2021/05/07 02:47:50;;;;;;;;;;;7.70;99.90;;;;;;5017012;28;19905;-77
2021/05/07 02:50:16;;;;;;;;;;;7.60;99.90;;;;;;5034841;28;19932;-77
2021/05/07 02:52:42;;;;;;;;;;;7.60;99.90;;;;;;5034565;28;20011;-77
2021/05/07 02:55:08;;;;;;;;;;;7.50;99.90;;;;;;5034446;28;19931;-77
2021/05/07 02:57:33;;;;;;;;;;;7.50;99.90;;;;;;5034309;28;19909;-77
2021/05/07 02:59:59;;;;;;;;;;;7.40;99.90;;;;;;5015962;28;19912;-77
2021/05/07 03:02:24;;;;;;;;;;;7.50;99.90;;;;;;5016939;28;19909;-77
2021/05/07 03:04:50;;;;;;;;;;;7.50;99.90;;;;;;5034304;28;20280;-77
2021/05/07 03:07:15;;;;;;;;;;;7.50;99.90;;;;;;5034539;28;19905;-77
2021/05/07 03:09:41;;;;;;;;;;;7.40;99.90;;;;;;5016576;28;20163;-77
2021/05/07 03:12:06;;;;;;;;;;;7.40;99.90;;;;;;5034408;28;20276;-77
2021/05/07 03:14:32;;;;;;;;;;;7.40;99.90;;;;;;5033883;28;19928;-77
2021/05/07 03:16:57;;;;;;;;;;;7.40;99.90;;;;;;5016463;28;19909;-77
2021/05/07 03:19:23;;;;;;;;;;;7.30;99.90;;;;;;5016229;28;20000;-77
2021/05/07 03:21:48;;;;;;;;;;;7.40;99.90;;;;;;5034255;28;19905;-77
2021/05/07 03:24:13;;;;;;;;;;;7.40;99.90;;;;;;5016037;28;19905;-77
2021/05/07 03:26:40;;;;;;;;;;;7.30;99.90;;;;;;5034167;28;20352;-77
2021/05/07 03:29:06;;;;;;;;;;;7.30;99.90;;;;;;5033914;28;20375;-78
2021/05/07 03:31:32;;;;;;;;;;;7.30;99.90;;;;;;5016249;28;19967;-77
2021/05/07 03:33:58;;;;;;;;;;;7.30;99.90;;;;;;5015945;28;19919;-77
2021/05/07 03:36:23;;;;;;;;;;;7.20;99.90;;;;;;5015798;28;19908;-77
2021/05/07 03:38:49;;;;;;;;;;;7.20;99.90;;;;;;5015969;28;19905;-77
2021/05/07 03:41:14;;;;;;;;;;;7.20;99.90;;;;;;5016115;28;20051;-77
2021/05/07 03:43:40;;;;;;;;;;;7.10;99.90;;;;;;5033691;28;19905;-77
2021/05/07 03:46:05;;;;;;;;;;;7.20;99.90;;;;;;5033654;28;19974;-77
2021/05/07 03:48:31;;;;;;;;;;;7.10;99.90;;;;;;5033647;28;19909;-77
2021/05/07 03:50:58;;;;;;;;;;;7.10;99.90;;;;;;5016539;28;20279;-77
2021/05/07 03:53:23;;;;;;;;;;;7.10;99.90;;;;;;5015988;28;19905;-77
2021/05/07 03:55:49;;;;;;;;;;;7.00;99.90;;;;;;5033211;28;19905;-77
2021/05/07 03:58:14;;;;;;;;;;;7.00;99.90;;;;;;5015611;28;20372;-77
2021/05/07 04:00:40;;;;;;;;;;;7.00;99.90;;;;;;5033519;28;19905;-77
2021/05/07 04:03:06;;;;;;;;;;;7.00;99.90;;;;;;5026365;28;19909;-77
2021/05/07 04:05:32;;;;;;;;;;;7.00;99.90;;;;;;4995669;28;20331;-77
2021/05/07 04:08:20;;;;;;;;;;;7.10;99.90;;;;;;5013567;28;19937;-77
2021/05/07 04:11:03;;;;;;;;;;;7.10;99.90;;;;;;4995453;28;20391;-77
2021/05/07 04:13:34;;;;;;;;;;;7.10;99.90;;;;;;5013454;28;19929;-77
2021/05/07 04:15:59;;;;;;;;;;;7.10;99.90;;;;;;4995512;28;19912;-77
2021/05/07 04:18:25;;;;;;;;;;;7.10;99.90;;;;;;5013774;28;20007;-77
2021/05/07 04:20:50;;;;;;;;;;;7.10;99.90;;;;;;5013382;28;19912;-77
2021/05/07 04:23:16;;;;;;;;;;;7.10;99.90;;;;;;4995799;28;19928;-77
2021/05/07 04:25:42;;;;;;;;;;;7.10;99.90;;;;;;4995289;28;20377;-77
2021/05/07 04:28:07;;;;;;;;;;;7.10;99.90;;;;;;4995821;28;19905;-77
2021/05/07 04:30:33;;;;;;;;;;;7.10;99.90;;;;;;4995719;28;19958;-77
2021/05/07 04:32:59;;;;;;;;;;;7.20;99.90;;;;;;5013668;28;19968;-77
2021/05/07 04:35:24;;;;;;;;;;;7.20;99.90;;;;;;5013219;28;19905;-77
2021/05/07 04:37:50;;;;;;;;;;;7.20;99.90;;;;;;4995491;28;19915;-77
2021/05/07 04:40:15;;;;;;;;;;;7.20;99.90;;;;;;4995817;28;20360;-77
2021/05/07 04:42:41;;;;;;;;;;;7.30;99.90;;;;;;5013196;28;19912;-77
2021/05/07 04:45:06;;;;;;;;;;;7.20;99.90;;;;;;5012880;28;19952;-77
2021/05/07 04:47:32;;;;;;;;;;;7.30;99.90;;;;;;5011873;28;19963;-77
2021/05/07 04:49:57;;;;;;;;;;;7.40;99.90;;;;;;4994168;28;19952;-77
2021/05/07 04:52:23;;;;;;;;;;;7.60;99.90;;;;;;4995199;28;20304;-78
2021/05/07 04:54:49;;;;;;;;;;;7.70;99.90;;;;;;5004477;28;19949;-78
2021/05/07 04:57:14;;;;;;;;;;;7.80;99.90;;;;;;5007406;28;20397;-78
2021/05/07 04:59:40;;;;;;;3.22;2.10;;;7.90;99.90;;;;;;5008494;28;19905;-77
2021/05/07 05:02:05;;;;;;;2.00;1.80;;;8.00;99.90;;;;;;5014710;28;20508;-77
2021/05/07 05:04:31;;;;;;;;;;;8.00;99.90;;;;;;4994136;28;19956;-77
2021/05/07 05:06:56;;;;;;;;;;;8.10;99.90;;;;;;5011497;28;19948;-77
2021/05/07 05:09:22;;;;;;;;;;;8.20;99.90;;;;;;5011847;28;20353;-77
2021/05/07 05:11:47;;;;;;;;;;;8.20;99.90;;;;;;4994211;28;19918;-77
2021/05/07 05:14:13;;;;;;;;;;;8.20;99.90;;;;;;4994099;28;19913;-77
2021/05/07 05:16:38;;;;;;;;;;;8.20;99.90;;;;;;5011504;28;19916;-77
2021/05/07 05:19:03;;;;;;;;;;;8.20;99.90;;;;;;4994316;28;19913;-77
2021/05/07 05:21:29;;;;;;;;;;;8.20;99.90;;;;;;5011770;28;20308;-77
2021/05/07 05:23:54;;;;;;;;;;;8.30;99.90;;;;;;5015672;28;19909;-77
2021/05/07 05:26:20;;;;;;;;;;;8.40;99.90;;;;;;5015560;28;19906;-77
2021/05/07 05:28:46;;;;;;;;;;;8.50;99.90;;;;;;4998544;28;19909;-80
2021/05/07 05:31:13;;;;;;;;;;;8.50;99.90;;;;;;5015457;28;19909;-77
2021/05/07 05:33:38;;;;;;;;;;;8.60;99.90;;;;;;4997829;28;20000;-77
2021/05/07 05:36:04;;;;;;;;;;;8.40;99.90;;;;;;4997444;28;20372;-77
2021/05/07 05:38:29;;;;;;;;;;;8.40;99.90;;;;;;5015268;28;19932;-77
2021/05/07 05:40:55;;;;;;;;;;;8.50;99.90;;;;;;4998094;28;19928;-77
2021/05/07 05:43:22;;;;;;;;;;;8.50;99.90;;;;;;5002862;28;20024;-77
2021/05/07 05:45:48;;;;;;;;;;;8.60;99.90;;;;;;5003076;28;19905;-76
2021/05/07 05:48:13;;;;;;;;;;;9.10;99.90;;;;;;5015457;28;20201;-78
2021/05/07 05:50:41;;;;;;;;;;;9.50;99.90;;;;;;4998124;28;20265;-77
2021/05/07 05:53:06;;;;;;;;;;;9.60;99.90;;;;;;5016232;28;20336;-78
2021/05/07 05:55:32;;;;;;;;;;;10.20;99.90;;;;;;4998636;28;19944;-78
2021/05/07 05:57:58;;;;;;;;;;;11.70;99.90;;;;;;4999004;28;19949;-78
2021/05/07 06:00:23;;;;;;;;;;;12.00;99.90;;;;;;5015922;28;19905;-78
2021/05/07 06:02:49;;;;;;;;;;;12.00;99.90;;;;;;5016490;28;19913;-79
2021/05/07 06:05:15;;;;;;;;;;;11.50;99.90;;;;;;4997026;28;19906;-77
2021/05/07 06:07:40;;;;;;;;;;;11.00;99.90;;;;;;5014748;28;20396;-77
2021/05/07 06:10:07;;;;;;;;;;;10.80;99.90;;;;;;5015240;28;20219;-76
2021/05/07 06:12:33;;;;;;;;;;;10.70;99.90;;;;;;5013197;28;19913;-77
2021/05/07 06:14:58;;;;;;;;;;;10.40;99.90;;;;;;5015719;28;19916;-76
2021/05/07 06:17:24;;;;;;;1.92;1.50;;;11.10;99.90;;;;;;5015040;28;19971;-75
2021/05/07 06:19:49;;;;;;;;;;;13.30;99.90;;;;;;5023005;28;20018;-76
2021/05/07 06:22:15;;;;;;;;;;;16.50;99.90;;;;;;5023455;28;19945;-76
2021/05/07 06:24:40;;;;;;;3.10;1.83;;;17.60;99.90;;;;;;5024628;28;20508;-76
2021/05/07 06:27:06;;;;;;;2.05;1.60;;;18.00;99.90;;;;;;5029963;28;20112;-76
2021/05/07 06:29:31;;;;;;;2.60;2.40;;;18.90;95.40;;;;;;5028888;28;20029;-76
2021/05/07 06:31:57;;;;;;;2.80;1.70;;;17.00;96.00;;;;;;5025631;28;20018;-76
2021/05/07 06:34:23;;;;;;;2.47;2.20;;;16.40;97.20;;;;;;5002526;28;20017;-76
2021/05/07 06:36:49;;;;;;;1.85;1.70;;;16.80;98.00;;;;;;5021870;28;20034;-77
2021/05/07 06:39:15;;;;;;;2.78;2.58;;;19.20;93.80;;;;;;5034536;28;20018;-77
2021/05/07 06:41:40;;;;;;;1.95;1.80;;;19.70;86.20;;;;;;5016808;28;20522;-77
2021/05/07 06:44:06;;;;;;;2.17;1.98;;;20.90;81.50;;;;;;5004345;28;20035;-79
2021/05/07 06:46:32;;;;;;;2.30;1.53;;;20.20;79.40;;;;;;5017111;28;20036;-79
2021/05/07 06:48:58;;;;;;;1.63;1.52;;;20.30;78.00;;;;;;4999125;28;20272;-79
2021/05/07 06:51:23;;;;;;;2.53;2.20;;;21.50;70.80;;;;;;5015820;28;20148;-78
2021/05/07 06:53:49;;;;;;;2.72;2.20;;;22.90;65.80;;;;;;5015633;28;20034;-76
2021/05/07 06:56:20;;;;;;;2.67;2.33;;;24.40;63.40;;;;;;5016514;28;20037;-80
2021/05/07 06:58:46;;;;;;;;;;;23.90;60.40;;;;;;5017515;28;20040;-76
2021/05/07 07:01:12;;;;;;;2.28;1.98;;;22.00;57.90;;;;;;5016724;28;19912;-79
2021/05/07 07:03:37;;;;;;;;;;;20.20;64.30;;;;;;5017588;28;20018;-79
2021/05/07 07:06:03;;;;;;;;;;;20.00;64.20;;;;;;5035219;28;19959;-77
2021/05/07 07:08:28;;;;;;;;;;;18.90;68.10;;;;;;5035469;28;19912;-79
2021/05/07 07:10:54;;;;;;;;;;;19.80;67.10;;;;;;5017300;28;20368;-77
2021/05/07 07:13:19;;;;;;;;;;;22.00;61.50;;;;;;5015259;28;19912;-77
2021/05/07 07:15:45;;;;;;;;;;;20.20;63.00;;;;;;5032865;28;19905;-77
2021/05/07 07:18:11;;;;;;;;;;;18.30;65.30;;;;;;5033276;28;19932;-78
2021/05/07 07:20:36;;;;;;;;;;;16.80;74.50;;;;;;5002800;28;20400;-77
2021/05/07 07:23:03;;;;;;;;;;;19.40;71.00;;;;;;4995650;28;20273;-77
2021/05/07 07:25:29;;;;;;;;;;;20.60;64.40;;;;;;4996391;28;19913;-77
2021/05/07 07:27:55;;;;;;;;;;;20.40;64.00;;;;;;4995941;28;19905;-78
2021/05/07 07:30:20;;;;;;;;;;;21.80;61.80;;;;;;5013958;28;19905;-78
2021/05/07 07:32:46;;;;;;;;;;;21.80;54.80;;;;;;5013777;28;19963;-77
2021/05/07 07:35:11;;;;;;;;;;;20.30;61.30;;;;;;4995419;28;19977;-78
2021/05/07 07:37:37;;;;;;;;;;;18.40;63.90;;;;;;5012757;28;19919;-77
2021/05/07 07:40:03;;;;;;;;;;;18.30;65.70;;;;;;4996318;28;19905;-77
2021/05/07 07:42:29;;;;;;;;;;;18.20;67.80;;;;;;5014316;28;19906;-77
2021/05/07 07:44:54;;;;;;;;;;;16.70;70.30;;;;;;4995708;28;19931;-77
2021/05/07 07:47:20;;;;;;;;;;;14.60;74.10;;;;;;4998822;28;20331;-76
2021/05/07 07:49:45;;;;;;;;;;;13.70;88.70;;;;;;5006146;28;19894;-77
2021/05/07 07:52:11;;;;;;;;;;;13.60;92.50;;;;;;5015460;28;19991;-77
2021/05/07 07:54:38;;;;;;;;;;;14.90;87.90;;;;;;4998326;28;19906;-77
2021/05/07 07:57:03;;;;;;;;;;;14.40;87.50;;;;;;5014541;28;19916;-77
2021/05/07 07:59:29;;;;;;;;;;;17.20;80.00;;;;;;5024534;28;19909;-77
2021/05/07 08:01:54;;;;;;;;;;;17.20;65.90;;;;;;5017878;28;19917;-77
2021/05/07 08:04:19;;;;;;;;;;;18.20;71.20;;;;;;5012401;28;19963;-77
2021/05/07 08:06:45;;;;;;;;;;;17.40;70.30;;;;;;5013377;28;20353;-77
2021/05/07 08:09:10;;;;;;;;;;;15.90;75.20;;;;;;5013345;28;19948;-77
2021/05/07 08:11:36;;;;;;;;;;;14.90;78.80;;;;;;5013293;28;19906;-77
2021/05/07 08:14:01;;;;;;;;;;;14.60;81.40;;;;;;4995524;28;19909;-77
2021/05/07 08:16:29;;;;;;;;;;;14.10;81.30;;;;;;5012800;28;19937;-77
2021/05/07 08:18:54;;;;;;;;;;;13.80;84.90;;;;;;4995508;28;20689;-77
2021/05/07 08:21:21;;;;;;;;;;;16.30;82.30;;;;;;5013891;28;19905;-77
2021/05/07 08:23:46;;;;;;;;;;;17.90;72.00;;;;;;5032676;28;19905;-77
2021/05/07 08:26:11;;;;;;;;;;;15.90;73.10;;;;;;5014814;28;20387;-77
2021/05/07 08:28:37;;;;;;;;;;;17.60;72.50;;;;;;5014971;28;19912;-76
2021/05/07 08:31:02;;;;;;;;;;;21.10;64.00;;;;;;5015129;28;19912;-78
2021/05/07 08:33:28;;;;;;;;;;;23.90;55.80;;;;;;5032833;28;19924;-77
2021/05/07 08:35:53;;;;;;;2.70;1.60;;;23.40;51.70;;;;;;5032620;28;19937;-78
2021/05/07 08:38:19;;;;;;;1.93;1.40;;;23.70;51.20;;;;;;5015220;28;20356;-78
2021/05/07 08:40:45;;;;;;;1.95;1.65;;;25.10;52.60;;;;;;5033194;28;20045;-77
2021/05/07 08:43:14;;;;;;;2.15;1.65;;;25.50;45.20;;;;;;5014712;28;20377;-77
2021/05/07 08:45:40;;;;;;;;;;;26.40;44.40;;;;;;5032317;28;20143;-78
2021/05/07 08:48:06;;;;;;;1.95;1.85;;;26.20;43.30;;;;;;5014794;28;19936;-77
2021/05/07 08:50:32;;;;;;;;;;;26.00;43.50;;;;;;5014996;28;20280;-76
2021/05/07 08:52:58;;;;;;;2.80;1.90;;;24.00;43.10;;;;;;5032422;28;19911;-76
2021/05/07 08:55:24;;;;;;;1.43;1.33;;;24.40;47.10;;;;;;5013949;28;20022;-77
2021/05/07 08:57:49;;;;;;;2.10;1.60;;;24.00;42.20;;;;;;5014212;28;20539;-78
2021/05/07 09:00:15;;;;;;;;;;;23.20;45.40;;;;;;5014942;28;20074;-78
2021/05/07 09:02:40;;;;;;;;;;;21.60;47.20;;;;;;5015427;28;19905;-78
2021/05/07 09:05:06;;;;;;;;;;;20.60;47.70;;;;;;5032394;28;20353;-78
2021/05/07 09:07:33;;;;;;;;;;;20.00;51.20;;;;;;5032617;28;19909;-78
2021/05/07 09:10:00;;;;;;;;;;;21.10;53.10;;;;;;5032961;28;19955;-78
2021/05/07 09:12:40;;;;;;;;;;;20.30;48.90;;;;;;5033390;28;19905;-78
2021/05/07 09:15:07;;;;;;;;;;;18.60;50.00;;;;;;5014156;28;19905;-77
2021/05/07 09:17:38;;;;;;;;;;;16.60;53.00;;;;;;5014333;28;19912;-78
2021/05/07 09:20:05;;;;;;;;;;;15.80;57.30;;;;;;5006234;28;19910;-77
2021/05/07 09:22:30;;;;;;;;;;;16.70;53.20;;;;;;5012399;28;19912;-78
2021/05/07 09:25:09;;;;;;;;;;;15.80;57.40;;;;;;5012095;28;19909;-77
2021/05/07 09:27:35;;;;;;;;;;;15.40;57.00;;;;;;5012326;28;19909;-77
2021/05/07 09:30:01;;;;;;;;;;;14.60;58.90;;;;;;5012246;28;19912;-77
2021/05/07 09:32:31;;;;;;;;;;;14.60;61.80;;;;;;4994638;28;19909;-77
2021/05/07 09:35:12;;;;;;;;;;;14.60;60.60;;;;;;4994223;28;19906;-78
2021/05/07 09:37:39;;;;;;;;;;;16.70;57.40;;;;;;4994580;28;20295;-77
2021/05/07 09:40:11;;;;;;;;;;;17.90;57.20;;;;;;5012025;28;20383;-77
2021/05/07 09:42:37;;;;;;;;;;;19.20;51.50;;;;;;4995344;28;20279;-78
2021/05/07 09:45:03;;;;;;;;;;;20.90;50.70;;;;;;4995583;28;19913;-78
2021/05/07 09:47:32;;;;;;;;;;;21.80;49.30;;;;;;4995500;28;19905;-77
2021/05/07 09:50:02;;;;;;;;;;;21.80;49.00;;;;;;5012881;28;20368;-76
2021/05/07 09:52:27;;;;;;;1.63;1.42;;;20.50;50.90;;;;;;4994346;28;20360;-77
2021/05/07 09:54:53;;;;;;;;;;;20.50;49.00;;;;;;5011006;28;20076;-76
2021/05/07 09:57:19;;;;;;;;;;;18.70;49.00;;;;;;5012840;28;20449;-75
2021/05/07 09:59:44;;;;;;;;;;;18.00;51.10;;;;;;5012002;28;19906;-76
2021/05/07 10:02:11;;;;;;;;;;;16.60;52.80;;;;;;4994254;28;19956;-76
2021/05/07 10:04:37;;;;;;;;;;;15.20;55.80;;;;;;4994073;28;19906;-76
2021/05/07 10:07:02;;;;;;;;;;;14.60;60.50;;;;;;5011168;28;20442;-76
2021/05/07 10:09:28;;;;;;;;;;;16.40;58.20;;;;;;4997892;28;20237;-76
2021/05/07 10:11:55;;;;;;;;;;;17.50;56.10;;;;;;5015987;28;19905;-75
2021/05/07 10:14:21;;;;;;;;;;;16.90;56.60;;;;;;5016170;28;19912;-76
2021/05/07 10:16:47;;;;;;;;;;;15.90;56.60;;;;;;5015176;28;19909;-76
2021/05/07 10:19:13;;;;;;;;;;;15.70;60.00;;;;;;5016575;28;19975;-76
2021/05/07 10:21:46;;;;;;;;;;;16.30;57.00;;;;;;5035163;28;20016;-76
2021/05/07 10:24:13;;;;;;;;;;;17.60;56.60;;;;;;5012867;28;20003;-75
2021/05/07 10:26:45;;;;;;;;;;;17.20;55.90;;;;;;5019141;28;20129;-76
2021/05/07 10:29:21;;;;;;;;;;;16.20;56.90;;;;;;5021442;28;19992;-76
2021/05/07 10:31:51;;;;;;;;;;;15.60;59.60;;;;;;5016238;28;20387;-76
2021/05/07 10:34:17;;;;;;;;;;;15.10;59.40;;;;;;5034484;28;19924;-76
2021/05/07 10:36:44;;;;;;;;;;;17.50;58.90;;;;;;5009288;28;20388;-76
2021/05/07 10:39:17;;;;;;;;;;;18.30;54.20;;;;;;5006117;28;19909;-77
2021/05/07 10:41:42;;;;;;;;;;;18.80;54.60;;;;;;5022592;28;19909;-76
2021/05/07 10:44:08;;;;;;;2.35;1.60;;;20.60;52.70;;;;;;5007493;28;19909;-77
2021/05/07 10:46:34;;;;;;;;;;;21.50;52.40;;;;;;5024813;28;20108;-77
2021/05/07 10:49:00;;;;;;;;;;;22.40;49.80;;;;;;5006761;28;19912;-76
2021/05/07 10:51:27;;;;;;;1.98;1.80;;;19.50;50.80;;;;;;5025811;28;19905;-76
2021/05/07 10:54:07;;;;;;;;;;;19.70;51.50;;;;;;5006750;28;20025;-76
2021/05/07 10:56:34;;;;;;;;;;;20.60;51.90;;;;;;5007034;28;19963;-77
2021/05/07 10:59:09;;;;;;;;;;;21.80;49.80;;;;;;5024179;28;20365;-75
2021/05/07 11:01:35;;;;;;;2.35;1.20;;;19.80;49.10;;;;;;5005832;28;19916;-77
2021/05/07 11:04:09;;;;;;;;;;;17.60;50.90;;;;;;5007842;28;20030;-77
2021/05/07 11:06:41;;;;;;;;;;;15.90;53.80;;;;;;5021927;28;19910;-76
2021/05/07 11:09:13;;;;;;;;;;;14.70;56.80;;;;;;5012061;28;19998;-76
2021/05/07 11:11:38;;;;;;;3.25;1.10;;;13.70;60.60;;;;;;5016563;28;19909;-76
2021/05/07 11:14:06;;;;;;;;;;;13.20;60.60;;;;;;5034007;28;20155;-76
2021/05/07 11:16:39;;;;;;;;;;;12.80;63.60;;;;;;5031777;28;20445;-77
2021/05/07 11:19:04;;;;;;;;;;;12.60;62.50;;;;;;5002537;28;20376;-76
2021/05/07 11:21:30;;;;;;;;;;;12.50;64.50;;;;;;5016035;28;19911;-77
2021/05/07 11:23:55;;;;;;;;;;;12.50;65.90;;;;;;5002776;28;19989;-76
2021/05/07 11:26:32;;;;;;;;;;;12.50;66.80;;;;;;5013566;28;19912;-76
2021/05/07 11:28:58;;;;;;;;;;;12.50;68.20;;;;;;5014183;28;19960;-76
2021/05/07 11:31:25;;;;;;;;;;;12.10;79.10;;;;;;4996235;28;19996;-76
2021/05/07 11:33:51;;;;;;;;;;;11.50;97.40;;;;;;4996225;28;19997;-76
2021/05/07 11:36:18;;;;;;;;;;;11.50;99.90;;;;;;5028138;28;20442;-76
2021/05/07 11:38:43;;;;;;;;;;;11.70;99.90;;;;;;5015943;28;19909;-76
2021/05/07 11:41:15;;;;;;;;;;;11.90;99.90;;;;;;5015785;28;19905;-76
2021/05/07 11:43:41;;;;;;;;;;;12.80;99.90;;;;;;5033327;28;19912;-76
2021/05/07 11:46:08;;;;;;;;;;;13.30;99.90;;;;;;5033039;28;19905;-76
2021/05/07 11:48:34;;;;;;;;;;;12.80;99.90;;;;;;5015592;28;19904;-76
2021/05/07 11:51:06;;;;;;;;;;;11.80;99.90;;;;;;5015599;28;19905;-76
2021/05/07 11:53:32;;;;;;;;;;;11.50;99.90;;;;;;5015479;28;19913;-76
2021/05/07 11:55:58;;;;;;;;;;;11.50;99.90;;;;;;5014997;28;19909;-76
2021/05/07 11:58:49;;;;;;;;;;;12.80;99.90;;;;;;5021860;28;19997;-76
2021/05/07 12:01:17;;;;;;;;;;;13.60;99.90;;;;;;5011868;28;20376;-76
2021/05/07 12:03:43;;;;;;;;;;;13.80;99.90;;;;;;5015257;28;20003;-76
2021/05/07 12:06:15;;;;;;;;;;;14.20;99.90;;;;;;5015063;28;19952;-76
2021/05/07 12:08:41;;;;;;;;;;;14.20;99.90;;;;;;5015284;28;19905;-76
2021/05/07 12:11:10;;;;;;;;;;;14.10;99.90;;;;;;5015106;28;19916;-76
2021/05/07 12:13:36;;;;;;;1.20;0.90;;;13.80;99.90;;;;;;5014675;28;19905;-76
2021/05/07 12:16:01;;;;;;;;;;;14.10;99.90;;;;;;5032522;28;20485;-76
2021/05/07 12:18:27;;;;;;;;;;;14.40;99.20;;;;;;5032662;28;20578;-76
2021/05/07 12:20:57;;;;;;;1.30;1.20;;;14.40;99.90;;;;;;5014966;28;19909;-76
2021/05/07 12:23:22;;;;;;;;;;;14.30;99.90;;;;;;5015212;28;19909;-77
2021/05/07 12:25:48;;;;;;;;;;;14.40;99.90;;;;;;5014992;28;19916;-76
2021/05/07 12:28:18;;;;;;;;;;;14.40;99.90;;;;;;5014830;28;19992;-76
2021/05/07 12:30:45;;;;;;;;;;;14.30;99.90;;;;;;5032285;28;19909;-75
2021/05/07 12:33:18;;;;;;;;;;;14.40;98.80;;;;;;5014903;28;20002;-76
2021/05/07 12:35:50;;;;;;;;;;;14.50;99.90;;;;;;5032248;28;19912;-76
2021/05/07 12:38:18;;;;;;;;;;;14.50;99.40;;;;;;5014746;28;20219;-76
2021/05/07 12:40:44;;;;;;;;;;;14.90;99.90;;;;;;5032489;28;20384;-76
2021/05/07 12:43:10;;;;;;;;;;;15.00;99.90;;;;;;5032281;28;20012;-76
2021/05/07 12:45:35;;;;;;;;;;;15.00;96.80;;;;;;5014511;28;19931;-76
2021/05/07 12:48:01;;;;;;;;;;;14.80;98.10;;;;;;5014557;28;19912;-76
2021/05/07 12:50:28;;;;;;;2.38;1.35;;;14.90;99.90;;;;;;5014323;28;19912;-76
2021/05/07 12:52:54;;;;;;;1.67;1.10;;;15.40;99.90;;;;;;5031803;28;20018;-77
2021/05/07 12:55:20;;;;;;;2.28;1.38;;;15.10;99.80;;;;;;5031807;28;20156;-77
2021/05/07 12:57:45;;;;;;;;;;;14.60;99.10;;;;;;5014460;28;20037;-76
2021/05/07 13:00:11;;;;;;;;;;;14.00;97.70;;;;;;5014407;28;19963;-77
2021/05/07 13:02:36;;;;;;;;;;;14.00;99.90;;;;;;5014542;28;19905;-77
2021/05/07 13:05:02;;;;;;;;;;;14.20;98.20;;;;;;5032115;28;19909;-77
2021/05/07 13:07:30;;;;;;;;;;;14.10;97.90;;;;;;5014752;28;20392;-77
2021/05/07 13:09:56;;;;;;;;;;;14.00;96.30;;;;;;5014564;28;20050;-77
2021/05/07 13:12:21;;;;;;;;;;;14.50;98.00;;;;;;5003063;28;19905;-76
2021/05/07 13:14:48;;;;;;;;;;;15.20;97.10;;;;;;4994731;28;19910;-78
2021/05/07 13:17:17;;;;;;;;;;;15.50;91.80;;;;;;5013983;28;19932;-77
2021/05/07 13:19:43;;;;;;;;;;;15.40;92.50;;;;;;4997767;28;19921;-76
2021/05/07 13:22:09;;;;;;;;;;;15.80;95.60;;;;;;5012258;28;19952;-77
2021/05/07 13:24:34;;;;;;;;;;;16.60;94.10;;;;;;4994770;28;19916;-77
2021/05/07 13:27:00;;;;;;;;;;;15.80;88.70;;;;;;5011882;28;19912;-77
2021/05/07 13:29:25;;;;;;;;;;;15.20;87.70;;;;;;4995056;28;19959;-78
2021/05/07 13:31:51;;;;;;;;;;;15.00;91.40;;;;;;5012123;28;19933;-78
2021/05/07 13:34:18;;;;;;;;;;;15.20;90.40;;;;;;4994627;28;20308;-79
2021/05/07 13:36:43;;;;;;;;;;;15.80;92.10;;;;;;4994398;28;20357;-77
2021/05/07 13:39:09;;;;;;;;;;;16.60;91.40;;;;;;4994792;28;19945;-77
2021/05/07 13:41:34;;;;;;;;;;;17.30;76.80;;;;;;5012977;28;19909;-77
2021/05/07 13:44:00;;;;;;;;;;;17.00;76.00;;;;;;5015941;28;19905;-78
2021/05/07 13:46:25;;;;;;;;;;;16.90;77.20;;;;;;5017253;28;19905;-77
2021/05/07 13:48:50;;;;;;;;;;;16.60;63.00;;;;;;4998628;28;19985;-77
2021/05/07 13:51:16;;;;;;;;;;;16.10;66.40;;;;;;4998441;28;19906;-77
2021/05/07 13:53:41;;;;;;;;;;;16.30;67.70;;;;;;4998148;28;19928;-77
2021/05/07 13:56:07;;;;;;;;;;;16.40;66.10;;;;;;4998282;28;19905;-77
2021/05/07 13:58:32;;;;;;;;;;;16.40;65.20;;;;;;5019494;28;19909;-77
2021/05/07 14:00:58;;;;;;;;;;;16.60;70.30;;;;;;5034500;28;19909;-77
2021/05/07 14:03:23;;;;;;;;;;;15.90;62.90;;;;;;5017623;28;20350;-77
2021/05/07 14:05:49;;;;;;;;;;;15.70;61.70;;;;;;5035200;28;19905;-77
2021/05/07 14:08:14;;;;;;;;;;;16.10;65.50;;;;;;5035395;28;19912;-77